createdAt,value
2022-10-31T00:01:53.993Z,95893.94
2022-10-31T00:04:21.681Z,95899.41
2022-10-31T00:06:49.287Z,95894.56
2022-10-31T00:09:16.887Z,95887.50
2022-10-31T00:11:44.564Z,95886.72
2022-10-31T00:14:12.172Z,95897.88
2022-10-31T00:16:42.664Z,95895.78
2022-10-31T00:19:11.752Z,95895.09
2022-10-31T00:21:39.572Z,95894.81
2022-10-31T00:24:08.069Z,95896.41
2022-10-31T00:26:35.715Z,95894.19
2022-10-31T00:29:03.714Z,95892.53
2022-10-31T00:31:33.313Z,95890.81
2022-10-31T00:34:00.991Z,95894.22
2022-10-31T00:36:30.413Z,95894.28
2022-10-31T00:38:59.871Z,95892.44
2022-10-31T00:41:28.931Z,95891.38
2022-10-31T00:43:57.791Z,95893.44
2022-10-31T00:46:27.113Z,95896.34
2022-10-31T00:48:54.819Z,95894.03
2022-10-31T00:51:22.461Z,95886.53
2022-10-31T00:53:52.525Z,95889.03
2022-10-31T00:56:25.209Z,95884.38
2022-10-31T00:58:52.855Z,95879.31
2022-10-31T01:01:20.584Z,95879.91
2022-10-31T01:03:48.240Z,95883.38
2022-10-31T01:06:18.119Z,95882.00
2022-10-31T01:08:46.376Z,95885.19
2022-10-31T01:11:17.248Z,95886.97
2022-10-31T01:13:50.556Z,95883.41
2022-10-31T01:16:20.279Z,95875.78
2022-10-31T01:18:50.799Z,95881.66
2022-10-31T01:21:20.426Z,95882.59
2022-10-31T01:23:48.581Z,95886.81
2022-10-31T01:26:19.327Z,95889.59
2022-10-31T01:28:51.523Z,95893.75
2022-10-31T01:31:21.892Z,95887.78
2022-10-31T01:33:50.274Z,95886.84
2022-10-31T01:36:19.800Z,95884.47
2022-10-31T01:38:48.318Z,95884.06
2022-10-31T01:41:20.113Z,95885.16
2022-10-31T01:43:50.881Z,95887.69
2022-10-31T01:46:22.455Z,95890.81
2022-10-31T01:48:52.079Z,95882.44
2022-10-31T01:51:22.757Z,95891.25
2022-10-31T01:53:54.788Z,95877.91
2022-10-31T01:56:25.595Z,95885.47
2022-10-31T01:58:54.715Z,95885.94
2022-10-31T02:01:22.986Z,95879.19
2022-10-31T02:03:51.349Z,95881.13
2022-10-31T02:06:31.305Z,95876.47
2022-10-31T02:09:01.461Z,95874.22
2022-10-31T02:11:34.919Z,95880.72
2022-10-31T02:14:03.561Z,95879.19
2022-10-31T02:16:31.339Z,95881.13
2022-10-31T02:18:59.271Z,95876.72
2022-10-31T02:21:34.940Z,95883.88
2022-10-31T02:24:23.799Z,95879.88
2022-10-31T02:27:14.280Z,95881.53
2022-10-31T02:30:11.867Z,95884.44
2022-10-31T02:33:08.077Z,95882.09
2022-10-31T02:35:44.840Z,95883.31
2022-10-31T02:38:24.172Z,95889.94
2022-10-31T02:41:01.820Z,95879.31
2022-10-31T02:43:37.116Z,95881.22
2022-10-31T02:46:10.874Z,95877.63
2022-10-31T02:48:41.968Z,95886.31
2022-10-31T02:51:11.993Z,95882.75
2022-10-31T02:53:42.881Z,95876.47
2022-10-31T02:56:15.110Z,95887.19
2022-10-31T02:58:46.902Z,95888.03
2022-10-31T03:01:29.537Z,95888.16
2022-10-31T03:04:11.924Z,95889.38
2022-10-31T03:06:47.312Z,95880.13
2022-10-31T03:09:23.415Z,95878.88
2022-10-31T03:11:58.579Z,95882.06
2022-10-31T03:14:33.563Z,95876.41
2022-10-31T03:17:03.778Z,95871.06
2022-10-31T03:19:37.087Z,95876.41
2022-10-31T03:22:09.439Z,95872.84
2022-10-31T03:24:40.617Z,95883.06
2022-10-31T03:27:11.649Z,95889.81
2022-10-31T03:29:42.199Z,95892.28
2022-10-31T03:32:16.597Z,95885.56
2022-10-31T03:34:48.116Z,95875.78
2022-10-31T03:37:20.136Z,95882.38
2022-10-31T03:39:50.578Z,95882.41
2022-10-31T03:42:22.591Z,95884.44
2022-10-31T03:44:55.565Z,95882.81
2022-10-31T03:47:24.065Z,95874.66
2022-10-31T03:49:53.233Z,95872.03
2022-10-31T03:52:28.184Z,95876.34
2022-10-31T03:54:59.046Z,95875.78
2022-10-31T03:57:31.801Z,95874.97
2022-10-31T04:00:04.137Z,95882.25
2022-10-31T04:02:34.246Z,95887.91
2022-10-31T04:05:04.879Z,95883.88
2022-10-31T04:07:37.447Z,95878.81
2022-10-31T04:10:09.377Z,95876.72
2022-10-31T04:12:39.843Z,95879.47
2022-10-31T04:15:10.658Z,95881.41
2022-10-31T04:17:42.413Z,95881.81
2022-10-31T04:20:12.446Z,95881.97
2022-10-31T04:22:40.079Z,95877.00
2022-10-31T04:25:09.133Z,95877.31
2022-10-31T04:27:36.689Z,95876.59
2022-10-31T04:30:04.891Z,95877.84
2022-10-31T04:32:32.437Z,95879.63
2022-10-31T04:35:00.036Z,95886.25
2022-10-31T04:37:28.919Z,95886.31
2022-10-31T04:39:56.525Z,95893.69
2022-10-31T04:42:24.264Z,95892.00
2022-10-31T04:44:51.873Z,95886.50
2022-10-31T04:47:19.482Z,95897.81
2022-10-31T04:49:47.214Z,95893.69
2022-10-31T04:52:15.200Z,95891.50
2022-10-31T04:54:44.212Z,95891.91
2022-10-31T04:57:11.832Z,95892.31
2022-10-31T04:59:39.424Z,95886.91
2022-10-31T05:02:07.146Z,95888.59
2022-10-31T05:04:34.828Z,95889.94
2022-10-31T05:07:02.496Z,95883.34
2022-10-31T05:09:30.090Z,95890.91
2022-10-31T05:11:59.118Z,95893.38
2022-10-31T05:14:26.731Z,95891.84
2022-10-31T05:16:54.326Z,95886.31
2022-10-31T05:19:21.926Z,95886.84
2022-10-31T05:21:49.539Z,95884.81
2022-10-31T05:24:17.118Z,95878.19
2022-10-31T05:26:44.699Z,95875.44
2022-10-31T05:29:13.720Z,95873.13
2022-10-31T05:31:41.303Z,95875.03
2022-10-31T05:34:08.890Z,95869.41
2022-10-31T05:36:36.501Z,95875.06
2022-10-31T05:39:04.788Z,95874.13
2022-10-31T05:41:32.408Z,95869.28
2022-10-31T05:44:00.648Z,95860.38
2022-10-31T05:46:29.707Z,95871.50
2022-10-31T05:49:00.191Z,95864.09
2022-10-31T05:51:30.340Z,95876.97
2022-10-31T05:53:57.963Z,95871.34
2022-10-31T05:56:25.580Z,95868.97
2022-10-31T05:58:53.191Z,95877.22
2022-10-31T06:01:20.882Z,95872.13
2022-10-31T06:03:49.851Z,95874.19
2022-10-31T06:06:17.452Z,95868.16
2022-10-31T06:08:45.118Z,95869.41
2022-10-31T06:11:12.760Z,95874.22
2022-10-31T06:13:40.398Z,95877.94
2022-10-31T06:16:08.387Z,95883.03
2022-10-31T06:18:36.001Z,95884.69
2022-10-31T06:21:05.156Z,95877.09
2022-10-31T06:23:32.745Z,95879.84
2022-10-31T06:26:00.392Z,95885.19
2022-10-31T06:28:27.973Z,95890.25
2022-10-31T06:30:55.613Z,95882.00
2022-10-31T06:33:23.427Z,95883.66
2022-10-31T06:35:51.114Z,95877.75
2022-10-31T06:38:20.082Z,95880.50
2022-10-31T06:40:47.756Z,95877.34
2022-10-31T06:43:15.780Z,95878.75
2022-10-31T06:45:43.418Z,95878.41
2022-10-31T06:48:17.282Z,95875.66
2022-10-31T06:50:45.841Z,95874.81
2022-10-31T06:53:14.156Z,95877.28
2022-10-31T06:55:43.343Z,95883.31
2022-10-31T06:58:12.490Z,95881.25
2022-10-31T07:00:40.201Z,95884.16
2022-10-31T07:03:11.049Z,95875.09
2022-10-31T07:05:38.819Z,95881.00
2022-10-31T07:08:11.635Z,95883.03
2022-10-31T07:10:41.034Z,95891.94
2022-10-31T07:13:13.596Z,95891.25
2022-10-31T07:15:43.064Z,95889.47
2022-10-31T07:18:12.257Z,95892.25
2022-10-31T07:20:40.007Z,95894.44
2022-10-31T07:23:08.015Z,95893.88
2022-10-31T07:25:35.634Z,95884.53
2022-10-31T07:28:03.379Z,95896.56
2022-10-31T07:30:32.743Z,95886.94
2022-10-31T07:33:00.779Z,95890.38
2022-10-31T07:35:30.122Z,95892.28
2022-10-31T07:37:58.565Z,95892.16
2022-10-31T07:40:26.893Z,95890.09
2022-10-31T07:42:55.111Z,95889.13
2022-10-31T07:45:23.100Z,95890.91
2022-10-31T07:47:53.271Z,95888.16
2022-10-31T07:50:23.151Z,95880.19
2022-10-31T07:53:00.073Z,95882.53
2022-10-31T07:55:27.764Z,95879.63
2022-10-31T07:57:59.868Z,95885.13
2022-10-31T08:00:27.945Z,95877.44
2022-10-31T08:03:01.574Z,95869.72
2022-10-31T08:05:29.919Z,95866.00
2022-10-31T08:07:58.910Z,95863.94
2022-10-31T08:10:27.924Z,95877.41
2022-10-31T08:12:59.602Z,95867.16
2022-10-31T08:15:27.844Z,95867.88
2022-10-31T08:17:55.514Z,95867.59
2022-10-31T08:20:24.740Z,95866.63
2022-10-31T08:22:56.954Z,95861.69
2022-10-31T08:25:25.225Z,95859.34
2022-10-31T08:27:53.545Z,95855.22
2022-10-31T08:30:21.527Z,95843.84
2022-10-31T08:32:49.567Z,95848.97
2022-10-31T08:35:17.317Z,95850.06
2022-10-31T08:37:46.368Z,95846.72
2022-10-31T08:40:14.085Z,95849.34
2022-10-31T08:42:41.686Z,95846.16
2022-10-31T08:45:09.783Z,95838.91
2022-10-31T08:47:37.765Z,95836.91
2022-10-31T08:50:05.872Z,95836.94
2022-10-31T08:52:58.764Z,95832.44
2022-10-31T08:55:22.705Z,95837.09
2022-10-31T08:57:50.318Z,95829.03
2022-10-31T09:00:18.243Z,95835.28
2022-10-31T09:02:45.813Z,95822.44
2022-10-31T09:05:13.412Z,95820.94
2022-10-31T09:07:41.000Z,95821.91
2022-10-31T09:10:09.219Z,95815.69
2022-10-31T09:12:38.106Z,95815.69
2022-10-31T09:15:07.404Z,95814.88
2022-10-31T09:17:35.038Z,95810.44
2022-10-31T09:20:02.620Z,95810.06
2022-10-31T09:22:30.259Z,95799.19
2022-10-31T09:24:57.811Z,95795.78
2022-10-31T09:27:25.442Z,95793.47
2022-10-31T09:29:54.377Z,95787.84
2022-10-31T09:32:21.976Z,95792.66
2022-10-31T09:34:49.587Z,95784.94
2022-10-31T09:37:17.124Z,95782.25
2022-10-31T09:39:44.765Z,95782.63
2022-10-31T09:42:50.794Z,95789.38
2022-10-31T09:45:24.800Z,95784.19
2022-10-31T09:48:03.536Z,95779.88
2022-10-31T09:50:39.651Z,95774.56
2022-10-31T09:53:12.360Z,95776.88
2022-10-31T09:55:44.304Z,95773.34
2022-10-31T09:58:17.865Z,95773.94
2022-10-31T10:00:52.835Z,95772.38
2022-10-31T10:03:31.594Z,95771.69
2022-10-31T10:06:08.424Z,95766.28
2022-10-31T10:08:37.716Z,95763.56
2022-10-31T10:11:20.028Z,95768.19
2022-10-31T10:14:00.894Z,95769.25
2022-10-31T10:16:45.041Z,95764.13
2022-10-31T10:19:27.788Z,95763.56
2022-10-31T10:22:01.516Z,95765.25
2022-10-31T10:24:43.506Z,95759.81
2022-10-31T10:27:23.418Z,95762.69
2022-10-31T10:29:58.313Z,95767.44
2022-10-31T10:32:30.424Z,95756.22
2022-10-31T10:35:04.163Z,95757.28
2022-10-31T10:37:36.141Z,95759.41
2022-10-31T10:40:10.388Z,95753.50
2022-10-31T10:42:56.513Z,95753.66
2022-10-31T10:45:41.808Z,95746.59
2022-10-31T10:48:17.578Z,95743.66
2022-10-31T10:50:50.770Z,95754.91
2022-10-31T10:53:36.621Z,95745.56
2022-10-31T10:56:16.879Z,95741.97
2022-10-31T10:58:46.015Z,95733.28
2022-10-31T11:03:49.579Z,95726.78
2022-10-31T11:06:26.300Z,95725.50
2022-10-31T11:08:54.590Z,95724.34
2022-10-31T11:11:28.644Z,95724.69
2022-10-31T11:14:01.690Z,95715.16
2022-10-31T11:16:35.573Z,95714.00
2022-10-31T11:19:19.705Z,95713.19
2022-10-31T11:21:52.781Z,95712.53
2022-10-31T11:24:23.571Z,95716.31
2022-10-31T11:26:53.291Z,95716.66
2022-10-31T11:29:25.673Z,95709.25
2022-10-31T11:31:55.404Z,95701.34
2022-10-31T11:34:31.450Z,95700.06
2022-10-31T11:37:04.937Z,95698.09
2022-10-31T11:39:32.723Z,95688.53
2022-10-31T11:42:08.688Z,95696.97
2022-10-31T11:44:36.780Z,95690.69
2022-10-31T11:47:07.349Z,95683.31
2022-10-31T11:49:38.470Z,95686.72
2022-10-31T11:52:08.729Z,95675.59
2022-10-31T11:54:46.684Z,95678.38
2022-10-31T11:57:29.341Z,95672.75
2022-10-31T11:59:59.216Z,95674.06
2022-10-31T12:02:27.834Z,95670.97
2022-10-31T12:05:04.937Z,95663.88
2022-10-31T12:07:33.026Z,95649.13
2022-10-31T12:10:00.689Z,95667.84
2022-10-31T12:12:44.529Z,95650.06
2022-10-31T12:15:31.954Z,95654.84
2022-10-31T12:18:24.957Z,95652.38
2022-10-31T12:21:06.901Z,95656.81
2022-10-31T12:23:44.641Z,95653.88
2022-10-31T12:26:20.413Z,95649.78
2022-10-31T12:29:03.698Z,95640.19
2022-10-31T12:31:51.133Z,95641.03
2022-10-31T12:34:49.318Z,95641.38
2022-10-31T12:37:30.695Z,95635.78
2022-10-31T12:40:24.251Z,95645.16
2022-10-31T12:43:06.682Z,95640.53
2022-10-31T12:45:49.462Z,95639.53
2022-10-31T12:48:43.819Z,95628.84
2022-10-31T12:51:21.112Z,95633.28
2022-10-31T12:54:05.632Z,95627.88
2022-10-31T12:56:46.159Z,95624.59
2022-10-31T12:59:21.854Z,95617.03
2022-10-31T13:01:56.478Z,95612.44
2022-10-31T13:04:37.168Z,95597.97
2022-10-31T13:07:10.595Z,95604.41
2022-10-31T13:09:49.609Z,95603.41
2022-10-31T13:12:21.340Z,95600.94
2022-10-31T13:14:52.602Z,95593.69
2022-10-31T13:17:27.324Z,95584.31
2022-10-31T13:20:03.631Z,95586.28
2022-10-31T13:22:36.606Z,95587.94
2022-10-31T13:25:13.881Z,95591.22
2022-10-31T13:27:50.008Z,95581.88
2022-10-31T13:30:21.949Z,95575.94
2022-10-31T13:32:53.829Z,95573.97
2022-10-31T13:35:27.261Z,95573.81
2022-10-31T13:38:06.531Z,95575.63
2022-10-31T13:40:44.929Z,95569.69
2022-10-31T13:43:21.124Z,95573.31
2022-10-31T13:45:53.238Z,95564.44
2022-10-31T13:48:35.801Z,95563.28
2022-10-31T13:51:05.920Z,95563.28
2022-10-31T13:53:43.519Z,95564.78
2022-10-31T13:56:23.138Z,95562.66
2022-10-31T13:59:01.943Z,95559.50
2022-10-31T14:01:31.021Z,95566.56
2022-10-31T14:04:15.712Z,95565.78
2022-10-31T14:06:53.105Z,95560.84
2022-10-31T14:09:25.380Z,95556.41
2022-10-31T14:11:54.953Z,95550.66
2022-10-31T14:14:25.110Z,95548.47
2022-10-31T14:16:57.573Z,95545.50
2022-10-31T14:19:26.456Z,95539.34
2022-10-31T14:21:54.086Z,95538.94
2022-10-31T14:24:38.699Z,95540.94
2022-10-31T14:27:52.897Z,95541.06
2022-10-31T14:30:25.325Z,95541.91
2022-10-31T14:32:55.876Z,95530.78
2022-10-31T14:35:30.446Z,95524.72
2022-10-31T14:38:22.673Z,95520.00
2022-10-31T14:41:05.831Z,95522.03
2022-10-31T14:43:49.273Z,95516.97
2022-10-31T14:46:32.699Z,95515.34
2022-10-31T14:49:15.552Z,95515.06
2022-10-31T14:51:46.595Z,95513.06
2022-10-31T14:54:17.833Z,95507.47
2022-10-31T14:56:55.228Z,95503.66
2022-10-31T14:59:26.415Z,95508.28
2022-10-31T15:02:00.602Z,95507.00
2022-10-31T15:04:30.303Z,95509.94
2022-10-31T15:07:04.288Z,95498.13
2022-10-31T15:09:33.929Z,95498.63
2022-10-31T15:12:02.098Z,95497.16
2022-10-31T15:14:31.840Z,95495.66
2022-10-31T15:17:05.152Z,95481.38
2022-10-31T15:19:37.388Z,95488.44
2022-10-31T15:22:05.240Z,95487.97
2022-10-31T15:24:37.328Z,95490.94
2022-10-31T15:27:06.009Z,95483.53
2022-10-31T15:29:33.896Z,95485.88
2022-10-31T15:32:14.998Z,95482.56
2022-10-31T15:34:44.412Z,95482.91
2022-10-31T15:37:14.673Z,95478.31
2022-10-31T15:39:42.399Z,95476.00
2022-10-31T15:42:20.374Z,95478.16
2022-10-31T15:44:54.028Z,95480.16
2022-10-31T15:47:25.379Z,95487.22
2022-10-31T15:49:54.776Z,95486.72
2022-10-31T15:52:31.189Z,95485.25
2022-10-31T15:55:02.965Z,95489.66
2022-10-31T15:57:31.305Z,95485.72
2022-10-31T15:59:59.614Z,95487.38
2022-10-31T16:02:29.589Z,95480.00
2022-10-31T16:04:59.298Z,95490.19
2022-10-31T16:07:27.464Z,95471.47
2022-10-31T16:09:57.617Z,95475.41
2022-10-31T16:12:27.113Z,95483.66
2022-10-31T16:14:57.037Z,95476.25
2022-10-31T16:17:28.981Z,95472.28
2022-10-31T16:20:00.115Z,95482.66
2022-10-31T16:22:30.406Z,95478.72
2022-10-31T16:25:03.406Z,95483.50
2022-10-31T16:27:34.549Z,95486.59
2022-10-31T16:30:05.361Z,95485.25
2022-10-31T16:32:36.678Z,95493.47
2022-10-31T16:35:20.691Z,95492.16
2022-10-31T16:37:48.339Z,95490.66
2022-10-31T16:40:17.308Z,95491.81
2022-10-31T16:42:46.366Z,95493.78
2022-10-31T16:45:18.728Z,95486.72
2022-10-31T16:47:49.235Z,95494.63
2022-10-31T16:50:21.336Z,95491.97
2022-10-31T16:55:42.937Z,95485.06
2022-10-31T16:58:19.633Z,95494.09
2022-10-31T17:00:47.742Z,95497.38
2022-10-31T17:03:16.744Z,95491.47
2022-10-31T17:05:44.457Z,95496.06
2022-10-31T17:08:12.638Z,95499.00
2022-10-31T17:10:41.699Z,95494.91
2022-10-31T17:13:16.501Z,95502.94
2022-10-31T17:15:48.072Z,95499.00
2022-10-31T17:18:20.567Z,95488.81
2022-10-31T17:20:54.318Z,95502.09
2022-10-31T17:23:21.935Z,95493.56
2022-10-31T17:25:49.521Z,95499.97
2022-10-31T17:28:17.149Z,95492.75
2022-10-31T17:30:45.316Z,95490.28
2022-10-31T17:33:15.104Z,95490.94
2022-10-31T17:35:44.688Z,95496.19
2022-10-31T17:38:12.433Z,95500.94
2022-10-31T17:40:42.191Z,95501.41
2022-10-31T17:43:13.634Z,95497.47
2022-10-31T17:45:42.755Z,95494.34
2022-10-31T17:48:12.419Z,95485.81
2022-10-31T17:50:40.135Z,95488.09
2022-10-31T17:53:09.134Z,95486.94
2022-10-31T17:55:37.714Z,95482.00
2022-10-31T17:58:06.204Z,95475.28
2022-10-31T18:00:37.023Z,95481.84
2022-10-31T18:03:07.753Z,95484.44
2022-10-31T18:05:35.414Z,95483.13
2022-10-31T18:08:05.773Z,95483.44
2022-10-31T18:10:34.809Z,95482.94
2022-10-31T18:13:02.646Z,95481.81
2022-10-31T18:15:30.574Z,95488.03
2022-10-31T18:17:58.391Z,95479.47
2022-10-31T18:20:30.768Z,95477.97
2022-10-31T18:22:58.369Z,95479.09
2022-10-31T18:25:28.736Z,95486.66
2022-10-31T18:27:57.917Z,95481.72
2022-10-31T18:30:25.639Z,95480.75
2022-10-31T18:32:53.211Z,95474.03
2022-10-31T18:35:21.056Z,95476.66
2022-10-31T18:37:48.619Z,95473.69
2022-10-31T18:40:16.499Z,95482.84
2022-10-31T18:42:44.223Z,95479.91
2022-10-31T18:45:31.308Z,95481.72
2022-10-31T18:48:01.412Z,95477.94
2022-10-31T18:50:29.172Z,95479.72
2022-10-31T18:52:57.288Z,95462.69
2022-10-31T18:55:24.942Z,95476.81
2022-10-31T18:57:52.589Z,95464.78
2022-10-31T19:00:22.052Z,95464.13
2022-10-31T19:02:49.653Z,95461.56
2022-10-31T19:05:17.290Z,95467.09
2022-10-31T19:07:44.919Z,95470.06
2022-10-31T19:10:12.464Z,95461.81
2022-10-31T19:12:40.099Z,95468.66
2022-10-31T19:15:08.346Z,95471.09
2022-10-31T19:17:37.288Z,95471.56
2022-10-31T19:20:05.437Z,95463.16
2022-10-31T19:22:33.032Z,95477.25
2022-10-31T19:25:00.677Z,95472.69
2022-10-31T19:27:28.259Z,95468.25
2022-10-31T19:29:55.863Z,95467.28
2022-10-31T19:32:23.426Z,95464.97
2022-10-31T19:34:52.334Z,95465.28
2022-10-31T19:37:22.709Z,95465.94
2022-10-31T19:39:53.547Z,95471.03
2022-10-31T19:42:25.559Z,95461.53
2022-10-31T19:44:55.341Z,95465.91
2022-10-31T19:47:23.003Z,95465.06
2022-10-31T19:49:52.001Z,95465.25
2022-10-31T19:52:19.622Z,95466.03
2022-10-31T19:54:47.228Z,95467.03
2022-10-31T19:57:14.804Z,95469.13
2022-10-31T19:59:42.374Z,95470.56
2022-10-31T20:02:19.594Z,95471.41
2022-10-31T20:04:47.582Z,95468.81
2022-10-31T20:07:16.565Z,95465.53
2022-10-31T20:09:46.091Z,95467.34
2022-10-31T20:12:13.634Z,95468.66
2022-10-31T20:14:41.241Z,95460.00
2022-10-31T20:17:09.437Z,95463.16
2022-10-31T20:19:37.141Z,95463.13
2022-10-31T20:22:04.951Z,95465.75
2022-10-31T20:24:34.177Z,95471.66
2022-10-31T20:27:02.657Z,95468.53
2022-10-31T20:29:30.216Z,95471.34
2022-10-31T20:31:58.056Z,95465.69
2022-10-31T20:34:25.731Z,95471.84
2022-10-31T20:36:53.351Z,95472.38
2022-10-31T20:39:20.973Z,95471.66
2022-10-31T20:41:49.995Z,95475.41
2022-10-31T20:44:17.688Z,95478.00
2022-10-31T20:46:45.300Z,95474.22
2022-10-31T20:49:12.837Z,95477.78
2022-10-31T20:51:40.490Z,95468.50
2022-10-31T20:54:08.067Z,95477.97
2022-10-31T20:56:35.753Z,95481.41
2022-10-31T20:59:04.806Z,95475.88
2022-10-31T21:01:35.891Z,95474.03
2022-10-31T21:04:04.226Z,95473.56
2022-10-31T21:06:31.808Z,95481.25
2022-10-31T21:08:59.515Z,95476.66
2022-10-31T21:11:28.497Z,95476.28
2022-10-31T21:13:56.241Z,95470.84
2022-10-31T21:16:28.219Z,95472.81
2022-10-31T21:18:56.627Z,95475.34
2022-10-31T21:21:30.778Z,95477.69
2022-10-31T21:24:02.011Z,95481.84
2022-10-31T21:26:33.369Z,95479.66
2022-10-31T21:29:02.032Z,95481.94
2022-10-31T21:31:31.405Z,95477.47
2022-10-31T21:33:59.210Z,95472.53
2022-10-31T21:36:27.178Z,95474.28
2022-10-31T21:38:56.077Z,95476.94
2022-10-31T21:41:25.698Z,95475.41
2022-10-31T21:43:55.156Z,95472.81
2022-10-31T21:46:24.257Z,95470.31
2022-10-31T21:48:53.458Z,95468.59
2022-10-31T21:51:22.631Z,95468.84
2022-10-31T21:54:08.276Z,95465.88
2022-10-31T21:56:36.268Z,95462.81
2022-10-31T21:59:04.835Z,95469.72
2022-10-31T22:01:33.181Z,95463.88
2022-10-31T22:04:02.647Z,95466.56
2022-10-31T22:06:31.073Z,95458.34
2022-10-31T22:08:59.734Z,95458.66
2022-10-31T22:11:28.955Z,95461.59
2022-10-31T22:13:57.842Z,95457.16
2022-10-31T22:16:26.461Z,95460.16
2022-10-31T22:18:55.042Z,95454.19
2022-10-31T22:21:26.280Z,95459.94
2022-10-31T22:23:56.491Z,95461.28
2022-10-31T22:26:24.293Z,95462.31
2022-10-31T22:28:55.728Z,95455.06
2022-10-31T22:31:25.326Z,95451.94
2022-10-31T22:33:53.709Z,95456.63
2022-10-31T22:36:25.350Z,95457.72
2022-10-31T22:38:52.970Z,95451.00
2022-10-31T22:41:22.332Z,95443.66
2022-10-31T22:43:50.596Z,95440.22
2022-10-31T22:46:20.976Z,95447.38
2022-10-31T22:48:51.535Z,95438.59
2022-10-31T22:51:21.352Z,95436.41
2022-10-31T22:53:51.228Z,95446.28
2022-10-31T22:56:22.499Z,95444.19
2022-10-31T22:58:50.415Z,95448.22
2022-10-31T23:01:20.210Z,95451.28
2022-10-31T23:03:48.606Z,95440.75
2022-10-31T23:06:17.706Z,95443.97
2022-10-31T23:08:46.313Z,95446.44
2022-10-31T23:11:17.143Z,95446.91
2022-10-31T23:14:03.441Z,95448.59
2022-10-31T23:18:59.219Z,95445.22
2022-10-31T23:21:44.006Z,95448.59
2022-10-31T23:24:12.652Z,95443.75
2022-10-31T23:26:59.297Z,95441.63
2022-10-31T23:29:26.910Z,95443.34
2022-10-31T23:31:54.626Z,95447.56
2022-10-31T23:34:23.904Z,95454.50
2022-10-31T23:36:51.589Z,95453.16
2022-10-31T23:39:21.355Z,95449.66
2022-10-31T23:41:53.169Z,95454.88
2022-10-31T23:44:20.864Z,95446.44
2022-10-31T23:46:48.463Z,95448.75
2022-10-31T23:49:16.069Z,95450.00
2022-10-31T23:51:43.660Z,95444.19
2022-10-31T23:54:11.347Z,95447.38
2022-10-31T23:56:39.078Z,95451.66
2022-10-31T23:59:08.444Z,95443.75
